Aérodrome :
LOGIN :

S'inscrire | Disclaimer

   EN    FR    IT 

 










Légende :    VFR   VFR Marginal   IFR   IFR Intensif   IFR Très Intensif
Visi : 
Plafond : 
>= 8 km
>= 3000ft
5 à 8 km
1000 à 3000 ft
1500m à 5 km
500 à 1000 ft
800 à 1500m
200 à 500 ft
< 800m
< 200 ft
Symboles :   Orages  Brouillard  Fortes neiges  Fortes précipitations  Vent > 20 kt
SIGMETs :   Divers  Orages  Givrage  Turbulence  Onde Orograph.  Cendres Volcan.






- Altitude de l'aérodrome : 82 ft
- Code IATA : AAR


EKAH - Aarhus Tirstrup

DERNIER METAR :
  • 100350Z AUTO 26005KT 9999NDV NCD 01/M02 Q1014

METARs EXPIRÉS :
  • 100320Z AUTO 28007KT 9999NDV NCD 01/M02 Q1014
  • 100250Z AUTO 28009KT 9999NDV NCD 01/M02 Q1013
  • 100220Z AUTO 29008KT 9999NDV NCD 01/M02 Q1012
  • 100150Z AUTO 29009KT 9999NDV NCD 01/M02 Q1012
  • 100120Z AUTO 29008KT 9999NDV NCD 01/M02 Q1011

TAF TAF EKAH
Valide du 10 à 00h jusqu'au 11 à 00h UTC


092301Z 1000/1024 31008KT 9999 SCT040
BECMG 1015/1017 18018KT
TEMPO 1017/1020 18018G28KT
TEMPO 1020/1024 18018G40KT



MET'MAP, la Météo Aéronautique d'un coup d'oeil ! - Copyright ORBIFLY Décembre 2007 - Disclaimer

ORBIFLY MET'MAP TEAM :

Programmation & Développement : Alexandra Zaïnal
Sur une idée originale de : Baudouin d'Aumeries
Assistance à la programmation : Marc-Olivier Méhu
Soutien technique & logistique : Manuel Goepfert

Contact : metmap@orbifly.com




SOURCES & CREDITS :

   NOAA